createdAt,value
2019-04-21T00:02:08.597Z,60.00
2019-04-21T00:04:50.756Z,60.70
2019-04-21T00:07:26.506Z,60.30
2019-04-21T00:10:03.914Z,60.00
2019-04-21T00:12:22.116Z,60.20
2019-04-21T00:14:46.084Z,60.10
2019-04-21T00:17:12.402Z,60.40
2019-04-21T00:20:05.531Z,60.90
2019-04-21T00:22:38.067Z,64.50
2019-04-21T00:25:09.670Z,64.50
2019-04-21T00:27:38.445Z,63.00
2019-04-21T00:30:15.642Z,63.20
2019-04-21T00:32:35.567Z,62.90
2019-04-21T00:35:00.909Z,63.00
2019-04-21T00:37:36.464Z,62.80
2019-04-21T00:40:16.155Z,62.30
2019-04-21T00:42:43.187Z,62.60
2019-04-21T00:45:08.128Z,62.50
2019-04-21T00:47:38.811Z,62.00
2019-04-21T00:50:14.349Z,63.00
2019-04-21T00:52:58.229Z,62.50
2019-04-21T00:55:29.684Z,62.90
2019-04-21T01:00:22.138Z,63.90
2019-04-21T01:02:56.202Z,63.20
2019-04-21T01:05:22.764Z,63.80
2019-04-21T01:07:45.441Z,64.10
2019-04-21T01:10:10.590Z,63.90
2019-04-21T01:12:53.103Z,63.30
2019-04-21T01:15:27.151Z,64.20
2019-04-21T01:17:53.222Z,64.40
2019-04-21T01:20:12.893Z,64.00
2019-04-21T01:22:28.240Z,64.30
2019-04-21T01:25:09.062Z,64.80
2019-04-21T01:27:52.191Z,65.00
2019-04-21T01:30:18.824Z,65.60
2019-04-21T01:32:51.146Z,65.90
2019-04-21T01:35:21.083Z,65.40
2019-04-21T01:38:00.196Z,65.00
2019-04-21T01:40:27.609Z,65.40
2019-04-21T01:42:51.392Z,66.10
2019-04-21T01:45:18.918Z,66.40
2019-04-21T01:47:49.180Z,66.20
2019-04-21T01:50:08.398Z,66.30
2019-04-21T01:53:15.596Z,65.80
2019-04-21T01:55:30.800Z,65.70
2019-04-21T01:58:01.960Z,66.10
2019-04-21T02:00:46.437Z,66.10
2019-04-21T02:03:38.904Z,67.50
2019-04-21T02:05:56.363Z,67.20
2019-04-21T02:08:19.995Z,67.30
2019-04-21T02:10:54.685Z,67.80
2019-04-21T02:13:17.131Z,67.50
2019-04-21T02:15:55.821Z,67.40
2019-04-21T02:18:18.827Z,68.00
2019-04-21T02:20:40.170Z,68.90
2019-04-21T02:23:28.168Z,67.90
2019-04-21T02:25:51.093Z,67.60
2019-04-21T02:28:31.803Z,68.40
2019-04-21T02:31:06.050Z,69.00
2019-04-21T02:36:17.174Z,68.20
2019-04-21T02:43:44.868Z,69.30
2019-04-21T02:48:38.174Z,69.10
2019-04-21T02:50:50.044Z,68.90
2019-04-21T02:54:05.141Z,68.50
2019-04-21T02:56:01.153Z,69.20
2019-04-21T02:58:34.441Z,69.60
2019-04-21T03:01:23.770Z,69.40
2019-04-21T03:06:41.843Z,68.80
2019-04-21T03:09:09.086Z,70.20
2019-04-21T03:11:38.121Z,69.10
2019-04-21T03:14:17.068Z,70.30
2019-04-21T03:16:33.115Z,71.00
2019-04-21T03:19:06.928Z,70.00
2019-04-21T03:21:38.662Z,69.90
2019-04-21T03:24:15.305Z,70.00
2019-04-21T03:27:01.081Z,69.30
2019-04-21T03:29:17.567Z,69.50
2019-04-21T03:34:51.183Z,71.90
2019-04-21T03:39:01.198Z,71.50
2019-04-21T03:41:39.960Z,70.80
2019-04-21T03:44:06.546Z,71.20
2019-04-21T03:49:10.609Z,70.90
2019-04-21T03:51:42.191Z,71.90
2019-04-21T03:54:13.680Z,71.10
2019-04-21T04:02:01.883Z,71.20
2019-04-21T04:04:35.607Z,71.10
2019-04-21T04:07:39.716Z,71.40
2019-04-21T04:10:22.356Z,72.40
2019-04-21T04:12:52.239Z,72.50
2019-04-21T04:15:24.945Z,71.90
2019-04-21T04:17:49.116Z,71.80
2019-04-21T04:20:25.823Z,72.50
2019-04-21T04:22:52.623Z,72.30
2019-04-21T04:32:42.391Z,73.60
2019-04-21T04:43:09.030Z,71.80
2019-04-21T04:45:32.361Z,72.10
2019-04-21T04:47:59.692Z,72.60
2019-04-21T04:50:36.574Z,73.40
2019-04-21T04:52:52.965Z,74.20
2019-04-21T04:55:26.134Z,73.50
2019-04-21T04:58:03.783Z,74.10
2019-04-21T05:00:38.302Z,74.10
2019-04-21T05:02:55.985Z,74.10
2019-04-21T05:05:36.279Z,73.90
2019-04-21T05:08:01.630Z,74.20
2019-04-21T05:12:53.316Z,74.00
2019-04-21T05:15:16.063Z,74.40
2019-04-21T05:17:50.878Z,74.30
2019-04-21T05:20:29.747Z,74.70
2019-04-21T05:22:53.216Z,74.40
2019-04-21T05:25:31.032Z,73.60
2019-04-21T05:27:56.325Z,74.60
2019-04-21T05:33:27.280Z,74.30
2019-04-21T05:36:01.872Z,74.50
2019-04-21T05:38:33.354Z,73.40
2019-04-21T05:40:59.339Z,72.50
2019-04-21T05:43:32.501Z,72.10
2019-04-21T05:46:10.585Z,71.00
2019-04-21T05:48:51.885Z,69.70
2019-04-21T05:51:03.606Z,68.30
2019-04-21T05:53:36.203Z,67.60
2019-04-21T05:56:11.172Z,67.70
2019-04-21T05:58:39.162Z,66.90
2019-04-21T06:01:25.564Z,65.40
2019-04-21T06:03:54.216Z,64.20
2019-04-21T06:06:20.277Z,62.30
2019-04-21T06:08:42.209Z,61.40
2019-04-21T06:11:20.995Z,59.60
2019-04-21T06:13:48.215Z,59.10
2019-04-21T06:16:13.885Z,58.00
2019-04-21T06:18:48.928Z,57.40
2019-04-21T06:21:20.470Z,56.80
2019-04-21T06:23:47.828Z,55.70
2019-04-21T06:26:46.297Z,56.30
2019-04-21T06:28:45.276Z,56.30
2019-04-21T06:31:20.019Z,55.80
2019-04-21T06:33:52.294Z,55.20
2019-04-21T06:36:31.762Z,54.70
2019-04-21T06:39:00.332Z,53.30
2019-04-21T06:41:21.087Z,52.30
2019-04-21T06:43:58.451Z,53.20
2019-04-21T06:46:25.837Z,54.40
2019-04-21T06:48:53.705Z,55.10
2019-04-21T06:51:24.028Z,55.30
2019-04-21T06:53:52.542Z,55.00
2019-04-21T06:56:24.154Z,54.30
2019-04-21T06:58:48.480Z,53.10
2019-04-21T07:01:24.198Z,52.00
2019-04-21T07:04:01.680Z,52.00
2019-04-21T07:06:35.594Z,52.70
2019-04-21T07:08:52.934Z,52.30
2019-04-21T07:11:17.053Z,52.10
2019-04-21T07:13:44.397Z,51.00
2019-04-21T07:16:18.830Z,51.00
2019-04-21T07:18:51.269Z,50.40
2019-04-21T07:21:25.927Z,50.10
2019-04-21T07:23:54.279Z,49.70
2019-04-21T07:26:23.780Z,49.30
2019-04-21T07:28:47.922Z,49.40
2019-04-21T07:31:22.781Z,48.90
2019-04-21T07:36:21.868Z,48.40
2019-04-21T07:38:48.052Z,47.40
2019-04-21T07:41:09.678Z,46.50
2019-04-21T07:43:41.326Z,46.50
2019-04-21T07:46:10.151Z,46.20
2019-04-21T07:48:49.428Z,45.70
2019-04-21T07:51:25.457Z,45.10
2019-04-21T07:53:59.910Z,45.30
2019-04-21T07:56:07.453Z,46.50
2019-04-21T07:58:56.282Z,46.50
2019-04-21T08:01:27.199Z,45.80
2019-04-21T08:03:57.049Z,45.40
2019-04-21T08:06:25.355Z,44.80
2019-04-21T08:08:51.066Z,43.40
2019-04-21T08:11:17.853Z,41.30
2019-04-21T08:13:55.083Z,42.40
2019-04-21T08:16:37.064Z,40.40
2019-04-21T08:18:54.887Z,39.10
2019-04-21T08:21:20.656Z,38.80
2019-04-21T08:23:48.580Z,37.40
2019-04-21T08:26:14.536Z,35.40
2019-04-21T08:28:52.384Z,33.10
2019-04-21T08:31:23.712Z,33.10
2019-04-21T08:33:56.087Z,32.90
2019-04-21T08:38:53.582Z,32.80
2019-04-21T08:41:18.631Z,32.10
2019-04-21T08:44:01.695Z,32.50
2019-04-21T08:46:20.259Z,31.70
2019-04-21T08:51:27.678Z,30.60
2019-04-21T08:53:55.127Z,30.10
2019-04-21T08:56:41.403Z,29.60
2019-04-21T08:59:15.169Z,30.00
2019-04-21T09:01:48.856Z,27.70
2019-04-21T09:04:24.466Z,28.00
2019-04-21T09:09:24.155Z,27.50
2019-04-21T09:11:53.863Z,28.50
2019-04-21T09:14:24.402Z,27.40
2019-04-21T09:16:47.471Z,27.30
2019-04-21T09:19:33.637Z,28.20
2019-04-21T09:21:55.186Z,28.20
2019-04-21T09:24:24.739Z,27.70
2019-04-21T09:26:54.207Z,27.00
2019-04-21T09:29:17.265Z,26.00
2019-04-21T09:31:39.971Z,26.00
2019-04-21T09:34:07.032Z,26.90
2019-04-21T09:36:42.748Z,25.70
2019-04-21T09:39:15.078Z,24.80
2019-04-21T09:41:42.664Z,24.10
2019-04-21T09:44:17.203Z,24.60
2019-04-21T09:46:47.531Z,23.70
2019-04-21T09:49:13.663Z,23.80
2019-04-21T09:51:41.614Z,22.80
2019-04-21T09:54:15.919Z,23.50
2019-04-21T09:56:47.350Z,24.10
2019-04-21T09:59:19.816Z,24.40
2019-04-21T10:01:55.906Z,24.00
2019-04-21T10:04:09.932Z,23.50
2019-04-21T10:06:39.206Z,23.50
2019-04-21T10:09:13.823Z,22.60
2019-04-21T10:11:38.010Z,22.00
2019-04-21T10:14:07.364Z,22.50
2019-04-21T10:16:46.226Z,22.60
2019-04-21T10:19:15.313Z,22.60
2019-04-21T10:21:44.443Z,21.30
2019-04-21T10:24:12.864Z,21.20
2019-04-21T10:26:41.135Z,22.50
2019-04-21T10:29:19.792Z,22.40
2019-04-21T10:31:40.649Z,22.40
2019-04-21T10:34:09.331Z,21.10
2019-04-21T10:36:37.703Z,21.20
2019-04-21T10:39:06.334Z,21.00
2019-04-21T10:41:35.144Z,20.80
2019-04-21T10:44:03.422Z,20.80
2019-04-21T10:46:32.871Z,20.40
2019-04-21T10:49:01.299Z,19.90
2019-04-21T10:51:30.820Z,19.80
2019-04-21T10:53:59.845Z,19.80
2019-04-21T10:56:33.212Z,20.30
2019-04-21T10:58:58.393Z,20.20
2019-04-21T11:01:27.431Z,20.30
2019-04-21T11:03:58.502Z,21.00
2019-04-21T11:06:28.589Z,20.70
2019-04-21T11:08:57.876Z,19.10
2019-04-21T11:11:27.961Z,20.90
2019-04-21T11:13:56.799Z,22.10
2019-04-21T11:16:25.212Z,21.00
2019-04-21T11:18:53.699Z,19.80
2019-04-21T11:21:22.932Z,19.70
2019-04-21T11:23:52.213Z,20.60
2019-04-21T11:26:21.984Z,20.20
2019-04-21T11:28:50.551Z,19.90
2019-04-21T11:31:18.925Z,19.80
2019-04-21T11:33:47.238Z,19.30
2019-04-21T11:36:15.703Z,19.30
2019-04-21T11:39:06.160Z,20.40
2019-04-21T11:41:21.713Z,20.20
2019-04-21T11:43:50.850Z,19.50
2019-04-21T11:46:20.470Z,19.20
2019-04-21T11:48:48.810Z,20.30
2019-04-21T11:51:17.205Z,19.90
2019-04-21T11:53:46.591Z,19.40
2019-04-21T11:56:14.842Z,19.00
2019-04-21T11:58:43.935Z,19.40
2019-04-21T12:01:13.811Z,20.40
2019-04-21T12:03:42.220Z,20.20
2019-04-21T12:06:11.147Z,19.40
2019-04-21T12:08:44.083Z,19.90
2019-04-21T12:11:09.570Z,19.50
2019-04-21T12:13:38.199Z,19.70
2019-04-21T12:16:07.215Z,18.90
2019-04-21T12:18:36.793Z,19.00
2019-04-21T12:21:05.307Z,19.50
2019-04-21T12:23:34.377Z,20.50
2019-04-21T12:26:03.119Z,20.50
2019-04-21T12:28:32.420Z,21.30
2019-04-21T12:31:00.842Z,20.00
2019-04-21T12:33:46.042Z,20.20
2019-04-21T12:36:15.708Z,20.50
2019-04-21T12:38:51.945Z,19.10
2019-04-21T12:41:14.901Z,20.10
2019-04-21T12:43:44.443Z,20.00
2019-04-21T12:46:13.898Z,18.20
2019-04-21T12:48:42.437Z,19.20
2019-04-21T12:51:12.175Z,19.10
2019-04-21T12:53:41.574Z,18.70
2019-04-21T12:56:09.958Z,19.10
2019-04-21T12:58:39.470Z,20.80
2019-04-21T13:01:09.202Z,19.70
2019-04-21T13:03:37.659Z,19.60
2019-04-21T13:06:05.902Z,20.10
2019-04-21T13:08:45.563Z,19.90
2019-04-21T13:11:04.343Z,19.90
2019-04-21T13:13:32.777Z,20.20
2019-04-21T13:16:01.219Z,19.00
2019-04-21T13:18:29.642Z,19.00
2019-04-21T13:21:00.916Z,19.10
2019-04-21T13:23:28.917Z,20.20
2019-04-21T13:25:57.525Z,20.00
2019-04-21T13:28:25.766Z,20.60
2019-04-21T13:30:54.102Z,20.20
2019-04-21T13:33:22.962Z,19.40
2019-04-21T13:35:53.017Z,19.50
2019-04-21T13:38:30.666Z,18.10
2019-04-21T13:41:10.474Z,19.00
2019-04-21T13:43:23.279Z,19.20
2019-04-21T13:45:52.138Z,19.00
2019-04-21T13:48:20.521Z,19.60
2019-04-21T13:50:49.057Z,19.00
2019-04-21T13:53:18.612Z,19.40
2019-04-21T13:55:46.963Z,18.50
2019-04-21T13:58:16.644Z,18.50
2019-04-21T14:00:45.616Z,18.70
2019-04-21T14:03:14.527Z,19.20
2019-04-21T14:05:44.414Z,18.70
2019-04-21T14:08:13.487Z,17.50
2019-04-21T14:10:41.827Z,18.00
2019-04-21T14:13:10.142Z,18.00
2019-04-21T14:15:38.355Z,20.10
2019-04-21T14:18:06.867Z,19.60
2019-04-21T14:20:37.460Z,19.20
2019-04-21T14:23:15.755Z,19.30
2019-04-21T14:25:35.549Z,17.90
2019-04-21T14:28:04.078Z,18.40
2019-04-21T14:30:32.579Z,18.80
2019-04-21T14:33:02.245Z,19.00
2019-04-21T14:35:30.757Z,18.80
2019-04-21T14:38:00.264Z,18.10
2019-04-21T14:40:31.346Z,18.20
2019-04-21T14:43:00.197Z,19.30
2019-04-21T14:45:34.547Z,18.10
2019-04-21T14:48:05.082Z,18.20
2019-04-21T14:50:50.499Z,18.40
2019-04-21T14:53:27.723Z,17.90
2019-04-21T14:55:57.523Z,17.50
2019-04-21T14:58:27.275Z,18.30
2019-04-21T15:01:01.976Z,17.50
2019-04-21T15:03:31.944Z,17.60
2019-04-21T15:06:01.109Z,18.50
2019-04-21T15:08:29.575Z,18.20
2019-04-21T15:10:58.865Z,17.70
2019-04-21T15:13:28.048Z,17.50
2019-04-21T15:15:56.426Z,18.10
2019-04-21T15:18:24.646Z,17.70
2019-04-21T15:20:53.173Z,16.60
2019-04-21T15:23:23.523Z,16.70
2019-04-21T15:25:52.355Z,18.00
2019-04-21T15:28:21.954Z,18.10
2019-04-21T15:30:50.487Z,17.50
2019-04-21T15:33:20.299Z,18.50
2019-04-21T15:35:49.104Z,17.80
2019-04-21T15:38:17.895Z,18.50
2019-04-21T15:40:51.929Z,17.50
2019-04-21T15:43:16.269Z,17.10
2019-04-21T15:45:44.607Z,17.50
2019-04-21T15:48:14.012Z,17.30
2019-04-21T15:50:42.296Z,16.30
2019-04-21T15:53:12.172Z,17.40
2019-04-21T15:55:51.159Z,17.80
2019-04-21T15:58:21.049Z,17.80
2019-04-21T16:00:52.343Z,17.10
2019-04-21T16:03:20.816Z,17.00
2019-04-21T16:05:49.073Z,16.60
2019-04-21T16:08:18.285Z,16.90
2019-04-21T16:10:52.836Z,18.10
2019-04-21T16:13:16.609Z,16.90
2019-04-21T16:15:45.986Z,17.40
2019-04-21T16:18:14.591Z,16.80
2019-04-21T16:20:43.950Z,16.30
2019-04-21T16:23:12.835Z,17.20
2019-04-21T16:25:41.209Z,17.60
2019-04-21T16:28:09.517Z,17.50
2019-04-21T16:30:40.276Z,17.90
2019-04-21T16:33:08.565Z,17.50
2019-04-21T16:35:37.816Z,17.70
2019-04-21T16:38:06.191Z,17.90
2019-04-21T16:40:43.216Z,17.60
2019-04-21T16:43:05.621Z,17.70
2019-04-21T16:45:34.706Z,17.80
2019-04-21T16:48:03.430Z,17.20
2019-04-21T16:50:31.900Z,17.30
2019-04-21T16:53:10.532Z,18.70
2019-04-21T16:55:43.137Z,17.50
2019-04-21T16:58:25.113Z,18.00
2019-04-21T17:03:26.651Z,18.50
2019-04-21T17:05:56.167Z,18.50
2019-04-21T17:08:26.050Z,18.20
2019-04-21T17:11:03.021Z,19.00
2019-04-21T17:13:24.640Z,19.20
2019-04-21T17:16:11.331Z,19.70
2019-04-21T17:16:32.997Z,17.60
2019-04-21T17:18:40.665Z,19.70
2019-04-21T17:20:58.579Z,19.80
2019-04-21T17:23:23.027Z,20.20
2019-04-21T17:25:51.259Z,18.80
2019-04-21T17:28:19.640Z,19.20
2019-04-21T17:30:48.525Z,20.70
2019-04-21T17:33:21.571Z,21.90
2019-04-21T17:35:47.065Z,20.90
2019-04-21T17:38:16.343Z,24.90
2019-04-21T17:40:44.746Z,24.60
2019-04-21T17:43:17.489Z,26.00
2019-04-21T17:45:42.971Z,27.60
2019-04-21T17:48:15.900Z,27.10
2019-04-21T17:50:43.614Z,29.30
2019-04-21T17:53:14.904Z,29.80
2019-04-21T17:56:05.086Z,30.20
2019-04-21T17:58:34.157Z,31.40
2019-04-21T18:03:46.186Z,33.00
2019-04-21T18:06:02.462Z,33.90
2019-04-21T18:08:38.552Z,35.00
2019-04-21T18:11:01.310Z,35.60
2019-04-21T18:13:22.690Z,35.20
2019-04-21T18:16:01.670Z,35.60
2019-04-21T18:18:20.953Z,36.20
2019-04-21T18:21:07.019Z,36.80
2019-04-21T18:23:57.395Z,37.60
2019-04-21T18:26:29.085Z,37.50
2019-04-21T18:28:51.693Z,37.90
2019-04-21T18:31:18.998Z,38.50
2019-04-21T18:33:49.488Z,38.90
2019-04-21T18:36:34.893Z,38.80
2019-04-21T18:39:20.164Z,38.80
2019-04-21T18:41:36.549Z,39.40
2019-04-21T18:47:09.693Z,40.20
2019-04-21T18:49:19.449Z,40.40
2019-04-21T18:52:17.130Z,39.50
2019-04-21T18:54:51.553Z,40.40
2019-04-21T18:57:17.241Z,40.30
2019-04-21T18:59:39.808Z,40.70
2019-04-21T19:02:09.859Z,40.80
2019-04-21T19:04:37.581Z,41.90
2019-04-21T19:07:21.014Z,41.30
2019-04-21T19:10:11.324Z,41.60
2019-04-21T19:12:35.637Z,41.20
2019-04-21T19:14:50.587Z,42.40
2019-04-21T19:20:04.937Z,42.90
2019-04-21T19:22:20.136Z,42.50
2019-04-21T19:24:52.287Z,42.50
2019-04-21T19:30:15.437Z,43.40
2019-04-21T19:32:25.616Z,43.90
2019-04-21T19:34:40.378Z,44.20
2019-04-21T19:37:11.568Z,44.60
2019-04-21T19:39:50.882Z,44.70
2019-04-21T19:42:16.411Z,45.00
2019-04-21T19:44:55.241Z,45.10
2019-04-21T19:47:28.151Z,46.10
2019-04-21T19:49:55.416Z,44.90
2019-04-21T19:52:15.475Z,45.40
2019-04-21T19:54:40.939Z,46.00
2019-04-21T19:57:06.974Z,46.40
2019-04-21T19:59:42.249Z,46.30
2019-04-21T20:02:06.800Z,46.70
2019-04-21T20:04:42.801Z,46.60
2019-04-21T20:07:22.131Z,47.10
2019-04-21T20:09:50.167Z,47.00
2019-04-21T20:12:29.715Z,47.90
2019-04-21T20:14:59.582Z,47.70
2019-04-21T20:17:17.748Z,47.70
2019-04-21T20:19:36.236Z,47.80
2019-04-21T20:22:05.276Z,47.80
2019-04-21T20:24:35.949Z,48.40
2019-04-21T20:27:11.464Z,47.90
2019-04-21T20:29:53.890Z,48.40
2019-04-21T20:32:24.586Z,49.00
2019-04-21T20:34:56.562Z,48.60
2019-04-21T20:37:21.325Z,48.80
2019-04-21T20:39:43.996Z,49.70
2019-04-21T20:42:30.171Z,49.40
2019-04-21T20:44:52.644Z,49.80
2019-04-21T20:47:15.952Z,49.70
2019-04-21T20:49:41.550Z,50.40
2019-04-21T20:52:24.496Z,50.50
2019-04-21T20:54:48.116Z,50.70
2019-04-21T20:57:21.898Z,50.60
2019-04-21T20:59:44.172Z,50.70
2019-04-21T21:02:20.308Z,50.60
2019-04-21T21:04:43.394Z,50.80
2019-04-21T21:07:34.442Z,50.90
2019-04-21T21:09:56.199Z,50.90
2019-04-21T21:12:34.521Z,50.60
2019-04-21T21:14:45.816Z,51.00
2019-04-21T21:17:35.790Z,51.10
2019-04-21T21:19:52.864Z,51.40
2019-04-21T21:22:16.010Z,51.90
2019-04-21T21:24:50.511Z,52.40
2019-04-21T21:27:19.712Z,52.40
2019-04-21T21:29:50.261Z,52.40
2019-04-21T21:32:24.036Z,52.40
2019-04-21T21:34:49.761Z,52.30
2019-04-21T21:37:32.195Z,52.20
2019-04-21T21:40:01.095Z,52.50
2019-04-21T21:42:06.110Z,52.60
2019-04-21T21:44:35.775Z,52.70
2019-04-21T21:47:22.856Z,52.90
2019-04-21T21:49:51.203Z,53.20
2019-04-21T21:52:13.242Z,53.10
2019-04-21T21:54:35.969Z,53.00
2019-04-21T21:57:04.865Z,53.10
2019-04-21T21:59:37.870Z,53.20
2019-04-21T22:02:03.669Z,53.70
2019-04-21T22:04:35.679Z,53.70
2019-04-21T22:07:07.227Z,53.80
2019-04-21T22:09:34.509Z,54.50
2019-04-21T22:12:06.683Z,54.40
2019-04-21T22:14:40.857Z,54.40
2019-04-21T22:17:16.148Z,53.90
2019-04-21T22:20:00.364Z,54.10
2019-04-21T22:22:19.193Z,54.50
2019-04-21T22:24:46.415Z,54.20
2019-04-21T22:27:03.193Z,55.00
2019-04-21T22:29:36.342Z,55.40
2019-04-21T22:32:09.513Z,55.00
2019-04-21T22:34:38.163Z,55.00
2019-04-21T22:37:19.128Z,55.30
2019-04-21T22:39:48.596Z,55.70
2019-04-21T22:42:11.227Z,55.70
2019-04-21T22:44:32.250Z,55.80
2019-04-21T22:47:11.000Z,56.20
2019-04-21T22:49:30.592Z,56.70
2019-04-21T22:52:02.903Z,56.50
2019-04-21T22:54:35.490Z,56.70
2019-04-21T22:57:06.474Z,57.10
2019-04-21T22:59:30.541Z,56.90
2019-04-21T23:01:59.436Z,58.00
2019-04-21T23:04:36.828Z,58.50
2019-04-21T23:07:02.932Z,57.90
2019-04-21T23:09:28.843Z,57.90
2019-04-21T23:11:58.449Z,58.60
2019-04-21T23:14:27.983Z,58.70
2019-04-21T23:17:14.876Z,58.10
2019-04-21T23:19:38.942Z,58.10
2019-04-21T23:22:16.165Z,57.80
2019-04-21T23:24:49.626Z,57.90
2019-04-21T23:27:11.746Z,58.20
2019-04-21T23:29:52.740Z,58.30
2019-04-21T23:32:14.967Z,58.30
2019-04-21T23:34:33.760Z,59.10
2019-04-21T23:37:05.507Z,59.20
2019-04-21T23:39:30.497Z,59.10
2019-04-21T23:41:57.740Z,59.40
2019-04-21T23:44:26.271Z,59.00
2019-04-21T23:46:58.609Z,59.40
2019-04-21T23:49:38.334Z,58.90
2019-04-21T23:52:00.543Z,59.80
2019-04-21T23:54:25.225Z,59.40
2019-04-21T23:56:53.855Z,59.80
2019-04-21T23:59:22.572Z,60.00
